Latest Weather Observations for Lady Elliot Island

IDQ60801

Issued at 7:02 am EST Tuesday 3 May 2016 (issued every 30 minutes, with the page automatically refreshed every 10 minutes)

About weather observations | Map of weather stations | Latest weather observations for QLD | Other Formats
Station Details ID: 039059 Name: LADY ELLIOT ISLAND Lat: -24.11 Lon: 152.72 Height: 3.6 m
Data from the previous 72 hours. | See also: Recent months at Lady Elliot Island
Date/Time
EST
Temp
°C
App
Temp
°C
Dew
Point
Rel
Hum
%
Delta-T
°C
Wind Press
QNH
hPa
Press
MSL
hPa
Rain
since 9 am
mm
Dir
 
Spd
km/h
Gust
km/h
Spd
kts
Gust
kts
03/07:00am 23.5 26.5 21.9 91 1.1 NNW 9 13 5 7 1014.5 1014.5 10.6
03/06:30am 22.9 26.1 21.7 93 0.8 N 7 9 4 5 1014.4 1014.4 10.6
03/06:00am 22.6 26.0 21.6 94 0.7 NE 6 7 3 4 1014.2 1014.2 10.6
03/05:30am 22.3 25.3 21.3 94 0.7 E 7 11 4 6 1013.9 1013.9 10.6
03/05:00am 22.3 25.9 21.3 94 0.7 NE 4 7 2 4 1013.7 1013.7 10.6
03/04:30am 22.6 24.0 21.8 95 0.5 SW 17 26 9 14 1014.0 1014.0 6.2
03/04:00am 23.7 27.3 22.1 91 1.1 NNW 6 7 3 4 1013.7 1013.7 0.2
03/03:30am 22.7 27.2 21.5 93 0.8 CALM 0 0 0 0 1013.7 1013.7 0.0
03/03:00am 22.3 26.5 20.9 92 0.9 CALM 0 0 0 0 1013.8 1013.8 0.0
03/02:30am 22.9 26.8 21.2 90 1.1 NW 2 7 1 4 1013.9 1013.9 0.0
03/02:00am 23.5 26.9 21.6 89 1.3 NW 6 6 3 3 1014.1 1014.1 0.0
03/01:30am 24.1 27.8 22.2 89 1.3 N 6 9 3 5 1014.3 1014.3 0.0
03/01:00am 24.1 27.5 22.0 88 1.4 N 7 9 4 5 1014.6 1014.6 0.0
03/12:30am 24.2 28.1 22.5 90 1.1 NNE 6 9 3 5 1014.9 1014.9 0.0
03/12:00am 24.1 27.7 22.4 90 1.1 N 7 9 4 5 1015.0 1015.0 0.0
 
Date/Time
EST
Temp
°C
App
Temp
°C
Dew
Point
Rel
Hum
%
Delta-T
°C
Wind Press
QNH
hPa
Press
MSL
hPa
Rain
since 9 am
mm
Dir
 
Spd
km/h
Gust
km/h
Spd
kts
Gust
kts
02/11:30pm 24.0 27.7 22.3 90 1.1 NNE 6 9 3 5 1015.2 1015.2 0.0
02/11:00pm 24.0 28.4 22.1 89 1.3 ENE 2 7 1 4 1015.4 1015.4 0.0
02/10:30pm 24.2 27.8 22.1 88 1.4 NNE 6 9 3 5 1015.9 1015.9 0.0
02/10:00pm 24.0 27.6 22.1 89 1.3 NNE 6 9 3 5 1015.5 1015.5 0.0
02/09:30pm 24.2 28.1 22.5 90 1.1 ENE 6 9 3 5 1015.4 1015.4 0.0
02/09:00pm 24.2 28.1 22.5 90 1.1 NE 6 9 3 5 1015.6 1015.6 0.0
02/08:30pm 24.2 28.4 22.5 90 1.1 ENE 4 9 2 5 1015.6 1015.6 0.0
02/08:00pm 24.4 27.8 22.7 90 1.1 ENE 9 13 5 7 1015.5 1015.5 0.0
02/07:30pm 24.4 28.1 22.5 89 1.3 ENE 7 11 4 6 1015.4 1015.4 0.0
02/07:00pm 24.3 27.9 22.4 89 1.3 E 7 9 4 5 1015.0 1015.0 0.0
02/06:30pm 24.2 27.8 22.1 88 1.4 ENE 6 9 3 5 1014.7 1014.7 0.0
02/06:00pm 24.4 28.1 22.3 88 1.4 ENE 6 11 3 6 1014.2 1014.2 0.0
02/05:30pm 24.4 27.9 21.9 86 1.7 NE 6 7 3 4 1013.9 1013.9 0.0
02/05:00pm 24.9 28.6 22.2 85 1.8 ENE 6 9 3 5 1013.7 1013.7 0.0
02/04:30pm 25.3 29.0 22.2 83 2.1 ENE 6 9 3 5 1013.4 1013.4 0.0
02/04:00pm 25.7 29.2 22.2 81 2.3 E 7 11 4 6 1013.2 1013.2 0.0
02/03:30pm 25.5 29.2 22.2 82 2.2 ESE 6 7 3 4 1013.3 1013.3 0.0
02/03:00pm 25.6 29.6 22.7 84 2.0 ESE 6 7 3 4 1013.5 1013.5 0.0
02/02:30pm 26.0 29.9 22.5 81 2.4 ESE 6 9 3 5 1013.6 1013.6 0.0
02/02:00pm 27.2 31.3 23.0 78 2.9 SE 6 9 3 5 1013.6 1013.6 0.0
02/01:30pm 27.0 31.1 23.0 79 2.7 ENE 6 9 3 5 1013.8 1013.8 0.0
02/01:00pm 26.7 30.5 22.8 79 2.6 E 7 9 4 5 1014.1 1014.1 0.0
02/12:30pm 27.2 31.6 23.4 80 2.6 ENE 6 9 3 5 1014.7 1014.7 0.0
02/12:00pm 26.9 32.0 23.4 81 2.4 SSE 2 9 1 5 1015.1 1015.1 0.0
02/11:30am 27.2 31.3 23.0 78 2.9 ESE 6 9 3 5 1015.4 1015.4 0.0
02/11:00am 26.8 30.9 23.3 81 2.4 W 7 11 4 6 1015.9 1015.9 0.0
02/10:30am 26.9 30.9 23.8 83 2.1 WNW 9 11 5 6 1016.2 1016.2 0.0
02/10:00am 26.7 30.8 24.0 85 1.9 SW 9 13 5 7 1016.5 1016.5 0.0
02/09:30am 25.6 29.7 23.3 87 1.6 SW 7 9 4 5 1016.6 1016.6 0.0
02/09:00am 25.2 29.1 22.9 87 1.6 SW 7 11 4 6 1016.7 1016.7 0.2
02/08:30am 25.2 28.6 22.7 86 1.7 SW 9 11 5 6 1016.6 1016.6 0.2
02/08:00am 25.4 29.6 23.1 87 1.6 SSW 6 9 3 5 1016.2 1016.2 0.2
02/07:30am 24.7 28.7 23.1 91 1.1 S 7 9 4 5 1016.1 1016.1 0.2
02/07:00am 23.7 29.0 23.0 96 0.5 CALM 0 0 0 0 1016.0 1016.0 0.2
02/06:30am 22.0 26.3 21.2 95 0.5 CALM 0 0 0 0 1015.8 1015.8 0.2
02/06:00am 22.2 26.6 21.4 95 0.5 CALM 0 0 0 0 1015.7 1015.7 0.2
02/05:30am 22.3 26.7 21.3 94 0.7 CALM 0 0 0 0 1015.4 1015.4 0.2
02/05:00am 22.4 26.8 21.4 94 0.7 CALM 0 0 0 0 1015.0 1015.0 0.2
02/04:30am 23.2 28.0 22.2 94 0.7 CALM 0 0 0 0 1014.9 1014.9 0.2
02/04:00am 23.4 27.9 22.2 93 0.8 NW 2 6 1 3 1014.8 1014.8 0.2
02/03:30am 24.0 27.9 22.6 92 0.9 NNW 6 9 3 5 1014.6 1014.6 0.2
02/03:00am 24.2 28.0 22.8 92 0.9 NNW 7 11 4 6 1014.6 1014.6 0.2
02/02:30am 24.3 27.8 22.9 92 0.9 NNW 9 13 5 7 1014.7 1014.7 0.2
02/02:00am 24.3 28.2 22.9 92 0.9 NNW 7 9 4 5 1015.2 1015.2 0.2
02/01:30am 24.3 27.8 22.9 92 0.9 NNW 9 11 5 6 1015.3 1015.3 0.2
02/01:00am 24.3 28.2 22.9 92 0.9 NNW 7 11 4 6 1015.5 1015.5 0.2
02/12:30am 24.3 27.4 22.9 92 0.9 N 11 13 6 7 1015.7 1015.7 0.2
02/12:00am 24.4 27.2 23.0 92 0.9 N 13 17 7 9 1015.8 1015.8 0.2
 
Date/Time
EST
Temp
°C
App
Temp
°C
Dew
Point
Rel
Hum
%
Delta-T
°C
Wind Press
QNH
hPa
Press
MSL
hPa
Rain
since 9 am
mm
Dir
 
Spd
km/h
Gust
km/h
Spd
kts
Gust
kts
01/11:30pm 24.5 28.1 23.1 92 0.9 N 9 15 5 8 1016.3 1016.3 0.2
01/11:00pm 24.4 28.0 23.0 92 0.9 NNE 9 15 5 8 1016.4 1016.4 0.2
01/10:30pm 24.3 28.1 22.7 91 1.1 NNE 7 11 4 6 1016.8 1016.8 0.2
01/10:00pm 24.3 28.1 22.7 91 1.1 N 7 11 4 6 1016.7 1016.7 0.0
01/09:30pm 24.2 27.9 22.6 91 1.1 NNE 7 11 4 6 1016.8 1016.8 0.0
01/09:00pm 24.2 27.5 22.6 91 1.1 NNE 9 13 5 7 1016.9 1016.9 0.0
01/08:30pm 24.1 27.8 22.5 91 1.1 NNE 7 11 4 6 1016.8 1016.8 0.0
01/08:00pm 24.0 27.8 22.4 91 1.1 NNE 6 11 3 6 1016.7 1016.7 0.0
01/07:30pm 24.0 27.6 22.4 91 1.1 NNE 7 11 4 6 1016.6 1016.6 0.0
01/07:00pm 23.9 27.6 22.3 91 1.1 NE 6 11 3 6 1016.6 1016.6 0.0
01/06:30pm 23.9 27.6 22.3 91 1.1 NE 6 9 3 5 1016.3 1016.3 0.0
01/06:00pm 23.9 27.6 22.2 90 1.1 NE 6 9 3 5 1016.2 1016.2 0.0
01/05:30pm 24.0 27.6 22.1 89 1.3 NE 6 9 3 5 1016.1 1016.1 0.0
01/05:00pm 24.5 28.2 22.2 87 1.5 NE 6 9 3 5 1015.9 1015.9 0.0
01/04:30pm 25.0 28.9 22.5 86 1.7 NE 6 9 3 5 1015.7 1015.7 0.0
01/04:00pm 24.4 27.7 21.9 86 1.7 ENE 7 9 4 5 1015.3 1015.3 0.0
01/03:30pm 24.6 27.9 21.9 85 1.8 SE 7 7 4 4 1015.3 1015.3 0.0
01/03:00pm 25.1 28.7 22.4 85 1.8 S 7 11 4 6 1015.3 1015.3 0.0
01/02:30pm 25.1 28.2 22.2 84 1.9 SSW 9 13 5 7 1015.1 1015.1 0.0
01/02:00pm 25.4 28.3 22.5 84 1.9 SSW 11 15 6 8 1015.3 1015.3 0.0
01/01:30pm 25.1 27.7 22.0 83 2.1 SSW 11 15 6 8 1015.3 1015.3 0.0
01/01:00pm 25.3 28.6 22.6 85 1.8 SSW 9 15 5 8 1015.6 1015.6 0.0
01/12:30pm 25.2 27.9 22.1 83 2.1 SSW 11 15 6 8 1016.0 1016.0 0.0
01/12:00pm 25.5 28.4 22.4 83 2.1 SSW 11 15 6 8 1016.3 1016.3 0.0
01/11:30am 25.2 27.7 22.5 85 1.8 SSW 13 17 7 9 1016.8 1016.8 0.0
01/11:00am 25.6 28.3 22.9 85 1.8 SSW 13 17 7 9 1017.3 1017.3 0.0
01/10:30am 25.0 27.5 22.5 86 1.7 SSW 13 19 7 10 1017.8 1017.8 0.0
01/10:00am 25.7 29.0 23.9 90 1.2 SSW 13 19 7 10 1018.0 1018.0 0.0
01/09:30am 25.0 28.1 22.9 88 1.4 SSW 11 15 6 8 1018.5 1018.5 0.0
01/09:00am 24.7 27.4 22.8 89 1.3 SW 13 17 7 9 1018.5 1018.5 4.2
01/08:30am 24.4 27.6 23.0 92 0.9 SSW 11 15 6 8 1018.3 1018.3 4.2
01/08:00am 23.9 26.9 22.7 93 0.8 SSW 11 13 6 7 1018.3 1018.3 4.2
01/07:30am 23.9 26.9 22.7 93 0.8 SSW 11 17 6 9 1018.0 1018.0 4.2
01/07:00am 23.7 27.1 22.7 94 0.7 SSW 9 13 5 7 1017.6 1017.6 4.2
01/06:30am 23.7 27.2 22.9 95 0.5 SW 9 13 5 7 1017.2 1017.2 4.2
01/06:00am 23.4 27.3 22.6 95 0.5 SW 6 7 3 4 1017.0 1017.0 4.2
01/05:30am 23.2 27.0 22.4 95 0.5 SW 6 7 3 4 1016.8 1016.8 4.2
01/05:00am 23.0 27.1 22.3 96 0.5 SSW 4 7 2 4 1016.5 1016.5 4.2
01/04:30am 23.0 27.8 22.2 95 0.5 CALM 0 0 0 0 1016.4 1016.4 4.2
01/04:00am 23.2 28.1 22.4 95 0.5 CALM 0 0 0 0 1016.3 1016.3 4.2
01/03:30am 22.7 27.3 21.7 94 0.7 CALM 0 0 0 0 1016.4 1016.4 4.2
01/03:00am 22.9 26.8 21.9 94 0.7 S 4 6 2 3 1016.4 1016.4 4.2
01/02:30am 23.3 28.1 22.1 93 0.8 CALM 0 0 0 0 1016.4 1016.4 4.2
01/02:00am 23.9 27.8 22.9 94 0.7 SE 7 9 4 5 1016.6 1016.6 4.2
01/01:30am 24.1 28.1 23.1 94 0.7 SE 7 9 4 5 1016.9 1016.9 4.2
01/01:00am 24.2 28.4 23.2 94 0.7 SE 6 9 3 5 1017.0 1017.0 4.2
01/12:30am 24.3 27.3 23.3 94 0.7 ESE 13 15 7 8 1017.2 1017.2 0.4
01/12:00am 24.3 27.2 23.1 93 0.8 SE 13 15 7 8 1017.3 1017.3 0.4
 
Date/Time
EST
Temp
°C
App
Temp
°C
Dew
Point
Rel
Hum
%
Delta-T
°C
Wind Press
QNH
hPa
Press
MSL
hPa
Rain
since 9 am
mm
Dir
 
Spd
km/h
Gust
km/h
Spd
kts
Gust
kts
30/11:30pm 24.2 27.4 23.0 93 0.8 SE 11 15 6 8 1017.5 1017.5 0.4
30/11:00pm 24.1 27.1 22.7 92 0.9 ESE 11 13 6 7 1017.7 1017.7 0.4
30/10:30pm 24.3 27.4 22.9 92 0.9 ESE 11 13 6 7 1017.9 1017.9 0.4
30/10:00pm 24.3 27.0 22.9 92 0.9 ESE 13 15 7 8 1018.1 1018.1 0.4
30/09:30pm 24.5 27.5 23.3 93 0.8 ESE 13 17 7 9 1018.1 1018.1 0.4
30/09:00pm 24.5 27.1 23.3 93 0.8 ESE 15 19 8 10 1018.0 1018.0 0.4
30/08:30pm 24.5 27.2 23.5 94 0.7 ESE 15 19 8 10 1017.9 1017.9 0.4
30/08:00pm 24.6 26.9 23.4 93 0.8 ESE 17 20 9 11 1017.8 1017.8 0.4
30/07:30pm 24.7 26.8 23.7 94 0.7 ESE 19 22 10 12 1017.7 1017.7 0.4
30/07:00pm 24.6 26.9 23.4 93 0.8 SE 17 22 9 12 1017.5 1017.5 0.4
30/06:30pm 24.6 26.9 23.4 93 0.8 ESE 17 22 9 12 1017.1 1017.1 0.4
30/06:00pm 24.6 26.8 23.2 92 0.9 ESE 17 22 9 12 1016.9 1016.9 0.4
30/05:30pm 24.6 26.8 23.2 92 0.9 SE 17 22 9 12 1016.7 1016.7 0.4
30/05:00pm 24.9 26.7 23.3 91 1.1 SE 19 24 10 13 1016.5 1016.5 0.4
30/04:30pm 25.4 27.6 23.3 88 1.4 SE 17 20 9 11 1016.4 1016.4 0.4
30/04:00pm 25.6 27.9 23.5 88 1.4 SE 17 20 9 11 1016.4 1016.4 0.4
30/03:30pm 26.0 28.3 23.5 86 1.7 SE 17 20 9 11 1016.3 1016.3 0.4
30/03:00pm 26.0 28.6 23.3 85 1.8 SSE 15 20 8 11 1016.3 1016.3 0.4
30/02:30pm 26.2 28.7 23.1 83 2.1 SSE 15 20 8 11 1016.4 1016.4 0.4
30/02:00pm 26.2 28.5 23.5 85 1.8 SSE 17 20 9 11 1016.5 1016.5 0.4
30/01:30pm 26.2 28.5 23.5 85 1.8 SSE 17 22 9 12 1016.7 1016.7 0.4
30/01:00pm 26.8 30.4 24.3 86 1.7 SSE 13 20 7 11 1016.9 1016.9 0.4
30/12:30pm 26.5 29.6 24.2 87 1.6 SE 15 20 8 11 1017.4 1017.4 0.4
30/12:00pm 26.3 28.2 23.4 84 2.0 SE 19 24 10 13 1018.0 1018.0 0.2
30/11:30am 26.4 29.1 24.2 88 1.5 SE 17 20 9 11 1018.4 1018.4 0.2
30/11:00am 26.0 28.9 23.9 88 1.4 SE 15 20 8 11 1018.8 1018.8 0.2
30/10:30am 25.6 28.6 24.0 91 1.1 ESE 15 20 8 11 1019.1 1019.1 0.2
30/10:00am 24.1 24.8 22.2 89 1.3 ESE 22 28 12 15 1019.5 1019.5 0.2
30/09:30am 25.9 27.7 23.2 85 1.8 SE 19 24 10 13 1019.5 1019.5 0.0
30/09:00am 25.7 27.2 23.0 85 1.8 ESE 20 26 11 14 1019.5 1019.5 1.2
30/08:30am 25.5 27.1 23.2 87 1.6 SE 20 26 11 14 1019.4 1019.4 1.2
30/08:00am 25.6 27.5 23.7 89 1.3 ESE 20 24 11 13 1019.3 1019.3 1.2
30/07:30am 24.7 26.1 22.9 90 1.2 ESE 20 26 11 14 1019.1 1019.1 1.2

Other Formats:

Comma delimited format used in spreadsheet applications
http://www.bom.gov.au/fwo/IDQ60801/IDQ60801.94388.axf

JavaScript Object Notation format (JSON) in row-major order
http://www.bom.gov.au/fwo/IDQ60801/IDQ60801.94388.json